Time;durP1;ratioP1;P1;durP2;ratioP2;P2;SDS_P1;SDS_P2;PMS_P1;PMS_P2;Temp;Humidity;BMP_temperature;BMP_pressure;BME280_temperature;BME280_humidity;BME280_pressure;Samples;Min_cycle;Max_cycle;Signal;HPM_P1;HPM_P2
2024/04/07 00:02:37;;;;;;;;;;;;;;;15.69;48.43;97919.16;5017441;28;19948;-80
2024/04/07 00:05:23;;;;;;;;;;;;;;;15.56;50.12;97905.81;5023191;28;19932;-83
2024/04/07 00:08:11;;;;;;;;;;;;;;;15.54;50.14;97910.81;5023605;28;19940;-81
2024/04/07 00:11:00;;;;;;;;;;;;;;;15.57;49.83;97904.66;5031050;28;19925;-80
2024/04/07 00:13:47;;;;;;;;;;;;;;;15.48;50.39;97896.53;5009080;28;19931;-81
2024/04/07 00:16:33;;;;;;;;;;;;;;;15.47;50.02;97897.69;5029304;28;19929;-79
2024/04/07 00:19:23;;;;;;;;;;;;;;;15.54;49.67;97894.38;5032896;28;19932;-77
2024/04/07 00:22:10;;;;;;;;;;;;;;;15.63;48.47;97895.09;5035372;28;20717;-78
2024/04/07 00:24:57;;;;;;;;;;;;;;;15.54;50.40;97899.84;5026656;28;19980;-81
2024/04/07 00:27:43;;;;;;;;;;;;;;;15.47;49.59;97894.97;5022434;28;19925;-77
2024/04/07 00:30:30;;;;;;;;;;;;;;;15.51;48.81;97890.41;5007347;28;19925;-88
2024/04/07 00:33:17;;;;;;;;;;;;;;;15.44;49.14;97895.63;5012108;28;20400;-87
2024/04/07 00:36:09;;;;;;;;;;;;;;;15.59;48.07;97897.66;5027012;28;20340;-88
2024/04/07 00:38:55;;;;;;;;;;;;;;;15.54;49.20;97889.69;5023232;28;19925;-88
2024/04/07 00:41:42;;;;;;;;;;;;;;;15.45;48.86;97886.31;5017011;28;19925;-88
2024/04/07 00:44:28;;;;;;;;;;;;;;;15.48;48.20;97880.13;5034580;28;20016;-88
2024/04/07 00:47:16;;;;;;;;;;;;;;;15.55;47.84;97879.53;5029328;28;19967;-88
2024/04/07 00:50:02;;;;;;;;;;;;;;;15.38;48.75;97869.63;5003926;28;19925;-87
2024/04/07 00:52:52;;;;;;;;;;;;;;;15.35;49.73;97875.81;5017113;28;19925;-87
2024/04/07 00:55:39;;;;;;;;;;;;;;;15.31;49.59;97880.38;5019578;28;19983;-86
2024/04/07 00:58:26;;;;;;;;;;;;;;;15.27;50.98;97876.72;5024259;28;19932;-88
2024/04/07 01:01:13;;;;;;;;;;;;;;;15.23;50.61;97884.00;5022193;28;19965;-88
2024/04/07 01:04:00;;;;;;;;;;;;;;;15.22;51.42;97882.41;5025390;28;19952;-87
2024/04/07 01:06:46;;;;;;;;;;;;;;;15.13;51.74;97886.06;5035753;28;19924;-89
2024/04/07 01:09:35;;;;;;;;;;;;;;;15.12;51.49;97892.66;5027532;28;20067;-88
2024/04/07 01:12:21;;;;;;;;;;;;;;;15.07;51.56;97892.88;5007175;28;19925;-88
2024/04/07 01:15:09;;;;;;;;;;;;;;;15.10;51.67;97905.91;5031722;28;20336;-88
2024/04/07 01:17:56;;;;;;;;;;;;;;;15.03;51.11;97902.16;5023341;28;20012;-88
2024/04/07 01:20:44;;;;;;;;;;;;;;;14.98;51.28;97899.63;5011213;28;19936;-88
2024/04/07 01:23:31;;;;;;;;;;;;;;;14.94;51.83;97896.75;5034196;28;20281;-88
2024/04/07 01:26:19;;;;;;;;;;;;;;;14.85;52.90;97899.59;5031909;28;19979;-87
2024/04/07 01:29:06;;;;;;;;;;;;;;;14.78;53.07;97895.81;5038259;28;20019;-87
2024/04/07 01:31:53;;;;;;;;;;;;;;;14.83;52.78;97885.47;5030703;28;19924;-87
2024/04/07 01:34:39;;;;;;;;;;;;;;;14.80;53.08;97888.88;5015840;28;19925;-89
2024/04/07 01:37:27;;;;;;;;;;;;;;;14.83;51.69;97881.94;5027069;28;19952;-88
2024/04/07 01:40:14;;;;;;;;;;;;;;;14.81;52.33;97876.03;5031026;28;19929;-80
2024/04/07 01:43:01;;;;;;;;;;;;;;;14.82;52.40;97883.09;5024144;28;19925;-79
2024/04/07 01:45:47;;;;;;;;;;;;;;;14.78;51.93;97879.41;5025532;28;19925;-79
2024/04/07 01:48:34;;;;;;;;;;;;;;;14.81;52.19;97886.97;5009691;28;19929;-79
2024/04/07 01:51:21;;;;;;;;;;;;;;;14.79;52.52;97881.81;5006415;28;19925;-80
2024/04/07 01:54:08;;;;;;;;;;;;;;;14.75;52.57;97883.63;5033156;28;20346;-80
2024/04/07 01:56:55;;;;;;;;;;;;;;;14.68;52.89;97881.44;5023917;28;19972;-78
2024/04/07 01:59:42;;;;;;;;;;;;;;;14.60;53.63;97871.41;5025112;28;20280;-78
2024/04/07 02:02:29;;;;;;;;;;;;;;;14.71;53.38;97871.00;5025638;28;19969;-79
2024/04/07 02:05:16;;;;;;;;;;;;;;;14.63;53.30;97873.47;5034009;28;19948;-79
2024/04/07 02:08:03;;;;;;;;;;;;;;;14.65;53.01;97871.19;5040845;28;19924;-79
2024/04/07 02:10:50;;;;;;;;;;;;;;;14.57;53.54;97866.63;5030273;28;19948;-79
2024/04/07 02:13:38;;;;;;;;;;;;;;;14.51;53.43;97859.78;5045608;28;19932;-79
2024/04/07 02:16:26;;;;;;;;;;;;;;;14.48;53.42;97856.91;5043981;28;19929;-80
2024/04/07 02:19:14;;;;;;;;;;;;;;;14.47;53.88;97855.28;5046506;28;19925;-79
2024/04/07 02:22:01;;;;;;;;;;;;;;;14.46;53.70;97859.16;5019248;28;19961;-78
2024/04/07 02:24:47;;;;;;;;;;;;;;;14.36;54.21;97861.16;5035223;28;19925;-79
2024/04/07 02:27:35;;;;;;;;;;;;;;;14.43;53.82;97863.34;5037874;28;19933;-77
2024/04/07 02:30:22;;;;;;;;;;;;;;;14.47;53.93;97863.47;5039060;28;19948;-79
2024/04/07 02:33:09;;;;;;;;;;;;;;;14.46;53.72;97859.94;5039060;28;20372;-78
2024/04/07 02:35:56;;;;;;;;;;;;;;;14.45;53.49;97855.63;5035442;28;19932;-80
2024/04/07 02:38:43;;;;;;;;;;;;;;;14.42;54.03;97856.28;5034394;28;20341;-78
2024/04/07 02:41:29;;;;;;;;;;;;;;;14.41;54.22;97847.28;5026417;28;19940;-78
2024/04/07 02:44:17;;;;;;;;;;;;;;;14.38;53.93;97844.44;5030128;28;19925;-78
2024/04/07 02:50:10;;;;;;;;;;;;;;;14.37;53.82;97846.38;5038883;28;19924;-86
2024/04/07 02:52:57;;;;;;;;;;;;;;;14.37;53.98;97843.63;5028893;28;19971;-85
2024/04/07 02:55:47;;;;;;;;;;;;;;;14.33;54.41;97839.22;5013341;28;19925;-86
2024/04/07 02:58:33;;;;;;;;;;;;;;;14.27;54.86;97835.06;5034327;28;19986;-96
2024/04/07 03:01:20;;;;;;;;;;;;;;;14.28;54.76;97836.69;5031974;28;19986;-96
2024/04/07 03:04:07;;;;;;;;;;;;;;;14.24;54.63;97839.28;5027316;28;19940;-96
2024/04/07 03:06:58;;;;;;;;;;;;;;;14.20;55.02;97843.03;5024011;28;19929;-95
2024/04/07 03:09:45;;;;;;;;;;;;;;;14.19;54.72;97844.16;5022786;28;19929;-95
2024/04/07 03:12:32;;;;;;;;;;;;;;;14.15;54.98;97852.22;5038209;28;19987;-95
2024/04/07 03:15:19;;;;;;;;;;;;;;;14.12;55.24;97837.31;5026600;28;20016;-96
2024/04/07 03:18:06;;;;;;;;;;;;;;;14.10;55.43;97827.84;5037409;28;19932;-96
2024/04/07 03:20:54;;;;;;;;;;;;;;;14.07;55.41;97831.25;5035542;28;19947;-96
2024/04/07 03:23:41;;;;;;;;;;;;;;;14.11;54.79;97823.97;5027173;28;20273;-96
2024/04/07 03:26:29;;;;;;;;;;;;;;;14.02;55.36;97826.81;5031902;28;19964;-94
2024/04/07 03:29:16;;;;;;;;;;;;;;;14.03;55.81;97833.84;5041137;28;20296;-95
2024/04/07 03:32:03;;;;;;;;;;;;;;;14.02;56.30;97831.47;5044967;28;19925;-94
2024/04/07 03:34:51;;;;;;;;;;;;;;;14.04;56.02;97827.25;5058413;28;19924;-94
2024/04/07 03:37:39;;;;;;;;;;;;;;;13.99;55.88;97832.13;5048642;28;19924;-94
2024/04/07 03:40:26;;;;;;;;;;;;;;;13.92;56.32;97827.22;5029265;28;19961;-94
2024/04/07 03:43:16;;;;;;;;;;;;;;;13.94;56.56;97833.13;5026545;28;20034;-95
2024/04/07 03:46:03;;;;;;;;;;;;;;;13.88;56.76;97827.06;5034609;28;19925;-94
2024/04/07 03:48:50;;;;;;;;;;;;;;;13.89;57.15;97817.75;5028688;28;19924;-94
2024/04/07 03:51:38;;;;;;;;;;;;;;;13.78;57.54;97826.69;5036768;28;20024;-95
2024/04/07 03:54:25;;;;;;;;;;;;;;;13.77;57.97;97825.88;5012780;28;19925;-95
2024/04/07 03:57:13;;;;;;;;;;;;;;;13.80;57.66;97836.16;5027042;28;19924;-95
2024/04/07 03:59:59;;;;;;;;;;;;;;;13.82;57.22;97838.53;5037582;28;19936;-96
2024/04/07 04:02:50;;;;;;;;;;;;;;;13.75;57.67;97833.63;5046383;28;19928;-96
2024/04/07 04:05:42;;;;;;;;;;;;;;;13.76;57.70;97834.41;5022690;28;20001;-95
2024/04/07 04:08:29;;;;;;;;;;;;;;;13.74;57.54;97842.13;5039358;28;20292;-87
2024/04/07 04:11:16;;;;;;;;;;;;;;;13.76;57.64;97848.06;5036401;28;20299;-87
2024/04/07 04:14:04;;;;;;;;;;;;;;;13.76;57.73;97854.31;5036251;28;19925;-87
2024/04/07 04:16:50;;;;;;;;;;;;;;;13.82;57.51;97865.84;5031362;28;19957;-85
2024/04/07 04:19:37;;;;;;;;;;;;;;;13.87;56.89;97852.00;5027252;28;19947;-85
2024/04/07 04:22:25;;;;;;;;;;;;;;;13.93;56.97;97858.06;5030143;28;19929;-87
2024/04/07 04:25:11;;;;;;;;;;;;;;;13.95;56.84;97856.56;5021360;28;19926;-89
2024/04/07 04:28:00;;;;;;;;;;;;;;;14.03;57.09;97863.09;5039028;28;19931;-86
2024/04/07 04:30:53;;;;;;;;;;;;;;;14.01;56.63;97862.63;5036381;28;19959;-88
2024/04/07 04:33:40;;;;;;;;;;;;;;;14.07;56.82;97867.56;5033649;28;19933;-87
2024/04/07 04:36:26;;;;;;;;;;;;;;;14.12;56.36;97863.84;5034188;28;20483;-86
2024/04/07 04:39:14;;;;;;;;;;;;;;;14.10;56.50;97875.06;5025772;28;19947;-87
2024/04/07 04:42:00;;;;;;;;;;;;;;;14.11;55.87;97865.78;5013468;28;19925;-88
2024/04/07 04:44:48;;;;;;;;;;;;;;;14.16;56.20;97854.59;5027153;28;19925;-87
2024/04/07 04:47:34;;;;;;;;;;;;;;;14.23;55.76;97865.00;5061944;28;20304;-88
2024/04/07 04:50:22;;;;;;;;;;;;;;;14.18;55.87;97864.44;5021822;28;20347;-87
2024/04/07 04:53:08;;;;;;;;;;;;;;;14.20;55.68;97875.81;5031635;28;19925;-84
2024/04/07 04:55:58;;;;;;;;;;;;;;;14.22;56.39;97879.81;5031951;28;19925;-88
2024/04/07 04:58:44;;;;;;;;;;;;;;;14.27;55.54;97887.78;5030119;28;19974;-81
2024/04/07 05:01:33;;;;;;;;;;;;;;;14.28;55.50;97889.41;5029783;28;19968;-84
2024/04/07 05:04:19;;;;;;;;;;;;;;;14.30;56.25;97903.50;5022403;28;20425;-85
2024/04/07 05:07:07;;;;;;;;;;;;;;;14.23;56.60;97907.94;5031588;28;20164;-84
2024/04/07 05:09:54;;;;;;;;;;;;;;;14.24;56.74;97915.78;5031224;28;19929;-80
2024/04/07 05:12:42;;;;;;;;;;;;;;;14.19;57.42;97912.47;5013660;28;19924;-82
2024/04/07 05:15:29;;;;;;;;;;;;;;;14.20;57.31;97920.31;5034269;28;19980;-82
2024/04/07 05:18:18;;;;;;;;;;;;;;;14.35;56.88;97916.19;5009643;28;19932;-93
2024/04/07 05:21:06;;;;;;;;;;;;;;;14.34;56.51;97922.78;5030839;28;20443;-92
2024/04/07 05:23:52;;;;;;;;;;;;;;;14.44;56.96;97925.09;5031393;28;19925;-92
2024/04/07 05:26:39;;;;;;;;;;;;;;;14.31;56.47;97924.25;5029334;28;19929;-93
2024/04/07 05:29:25;;;;;;;;;;;;;;;14.42;56.37;97927.34;5032781;28;19929;-93
2024/04/07 05:32:12;;;;;;;;;;;;;;;14.51;55.71;97933.56;5028206;28;19991;-90
2024/04/07 05:35:00;;;;;;;;;;;;;;;14.53;55.71;97938.69;5023539;28;19925;-91
2024/04/07 05:37:47;;;;;;;;;;;;;;;14.68;54.91;97944.34;5027456;28;20544;-90
2024/04/07 05:40:34;;;;;;;;;;;;;;;14.85;55.45;97951.56;5012086;28;19928;-91
2024/04/07 05:43:21;;;;;;;;;;;;;;;14.99;54.69;97962.19;5020230;28;19925;-91
2024/04/07 05:46:08;;;;;;;;;;;;;;;15.23;54.36;97971.59;5020020;28;19925;-92
2024/04/07 05:48:56;;;;;;;;;;;;;;;15.29;54.81;97975.72;5025323;28;19932;-90
2024/04/07 05:51:44;;;;;;;;;;;;;;;15.60;53.36;97986.91;5040922;28;19925;-92
2024/04/07 05:54:31;;;;;;;;;;;;;;;15.77;52.84;97985.13;5035704;28;19925;-92
2024/04/07 05:57:17;;;;;;;;;;;;;;;15.94;53.92;97984.88;5035932;28;19925;-92
2024/04/07 06:00:06;;;;;;;;;;;;;;;16.17;52.10;97999.66;5020799;28;20059;-91
2024/04/07 06:02:58;;;;;;;;;;;;;;;16.35;50.89;98004.88;5029983;28;19925;-87
2024/04/07 06:05:44;;;;;;;;;;;;;;;16.49;52.62;97997.06;5033157;28;19932;-92
2024/04/07 06:08:33;;;;;;;;;;;;;;;16.62;51.26;97998.66;5037193;28;20051;-92
2024/04/07 06:11:19;;;;;;;;;;;;;;;16.69;49.53;98007.06;5034655;28;20426;-88
2024/04/07 06:14:07;;;;;;;;;;;;;;;16.75;49.09;98027.63;5042174;28;19928;-93
2024/04/07 06:16:53;;;;;;;;;;;;;;;16.91;47.28;98035.13;5040633;28;19968;-92
2024/04/07 06:19:40;;;;;;;;;;;;;;;17.00;48.24;98038.53;5035921;28;19974;-92
2024/04/07 06:22:26;;;;;;;;;;;;;;;17.14;46.83;98046.34;5030814;28;20411;-92
2024/04/07 06:25:15;;;;;;;;;;;;;;;17.20;46.52;98045.72;5032636;28;19971;-92
2024/04/07 06:28:02;;;;;;;;;;;;;;;17.02;47.15;98048.00;5039031;28;20466;-92
2024/04/07 06:30:49;;;;;;;;;;;;;;;17.10;47.87;98057.22;5037714;28;19925;-84
2024/04/07 06:33:36;;;;;;;;;;;;;;;16.98;49.07;98049.03;5030585;28;19925;-86
2024/04/07 06:36:22;;;;;;;;;;;;;;;17.00;48.72;98052.25;5036670;28;20372;-88
2024/04/07 06:39:10;;;;;;;;;;;;;;;17.10;47.00;98062.72;5030075;28;20403;-89
2024/04/07 06:41:57;;;;;;;;;;;;;;;17.05;48.07;98059.44;5033356;28;19928;-87
2024/04/07 06:44:44;;;;;;;;;;;;;;;17.18;47.18;98053.53;5027536;28;19948;-89
2024/04/07 06:47:30;;;;;;;;;;;;;;;17.12;46.76;98048.63;5028675;28;19924;-88
2024/04/07 06:50:17;;;;;;;;;;;;;;;17.24;46.99;98043.88;5017397;28;19925;-87
2024/04/07 06:53:04;;;;;;;;;;;;;;;17.41;46.64;98061.16;5030596;28;20359;-89
2024/04/07 06:55:51;;;;;;;;;;;;;;;17.45;47.56;98065.59;5046314;28;19933;-89
2024/04/07 06:58:41;;;;;;;;;;;;;;;17.47;46.96;98060.59;5044728;28;19924;-87
2024/04/07 07:01:28;;;;;;;;;;;;;;;17.51;47.49;98060.66;5038371;28;20016;-88
2024/04/07 07:04:16;;;;;;;;;;;;;;;17.62;46.83;98055.44;5035691;28;19925;-88
2024/04/07 07:07:02;;;;;;;;;;;;;;;17.72;46.40;98054.91;5021567;28;19925;-87
2024/04/07 07:09:49;;;;;;;;;;;;;;;17.74;47.71;98058.94;5035364;28;19924;-88
2024/04/07 07:12:35;;;;;;;;;;;;;;;17.76;46.51;98073.09;5024263;28;19990;-86
2024/04/07 07:15:24;;;;;;;;;;;;;;;18.10;46.16;98073.53;5042485;28;19948;-95
2024/04/07 07:18:11;;;;;;;;;;;;;;;18.41;45.33;98075.41;5018451;28;20007;-82
2024/04/07 07:20:58;;;;;;;;;;;;;;;18.61;44.96;98081.75;5021213;28;20031;-88
2024/04/07 07:23:44;;;;;;;;;;;;;;;18.84;44.95;98084.63;5039264;28;19924;-88
2024/04/07 07:26:32;;;;;;;;;;;;;;;18.89;43.32;98089.06;5025741;28;19925;-87
2024/04/07 07:29:18;;;;;;;;;;;;;;;19.13;43.52;98082.47;5053446;28;19990;-86
2024/04/07 07:32:10;;;;;;;;;;;;;;;19.40;42.11;98080.63;5037385;28;19933;-88
2024/04/07 07:34:56;;;;;;;;;;;;;;;19.36;42.60;98094.34;5021922;28;19928;-89
2024/04/07 07:37:43;;;;;;;;;;;;;;;19.33;41.63;98092.28;5028465;28;19932;-85
2024/04/07 07:40:30;;;;;;;;;;;;;;;19.36;40.80;98097.88;5010921;28;19932;-74
2024/04/07 07:43:16;;;;;;;;;;;;;;;19.42;42.17;98100.34;5023168;28;19929;-76
2024/04/07 07:46:03;;;;;;;;;;;;;;;19.26;43.42;98106.72;5023280;28;19988;-76
2024/04/07 07:48:51;;;;;;;;;;;;;;;19.24;41.01;98114.56;5027516;28;19924;-77
2024/04/07 07:51:38;;;;;;;;;;;;;;;19.19;41.04;98109.34;5028292;28;19925;-78
2024/04/07 07:54:24;;;;;;;;;;;;;;;19.01;41.06;98110.94;5032269;28;19978;-79
2024/04/07 07:57:11;;;;;;;;;;;;;;;18.80;44.77;98123.13;5031763;28;19939;-77
2024/04/07 07:59:57;;;;;;;;;;;;;;;18.82;45.29;98114.50;5026285;28;19925;-76
2024/04/07 08:02:44;;;;;;;;;;;;;;;18.77;42.93;98117.53;5029713;28;19932;-79
2024/04/07 08:05:32;;;;;;;;;;;;;;;18.76;44.34;98111.22;5029525;28;20016;-77
2024/04/07 08:08:20;;;;;;;;;;;;;;;18.92;41.75;98121.38;5021710;28;19975;-78
2024/04/07 08:11:06;;;;;;;;;;;;;;;19.20;40.67;98135.72;5035614;28;19955;-79
2024/04/07 08:13:54;;;;;;;;;;;;;;;19.28;41.75;98128.41;5034645;28;19925;-75
2024/04/07 08:16:41;;;;;;;;;;;;;;;19.42;42.80;98123.19;5034381;28;20396;-77
2024/04/07 08:19:28;;;;;;;;;;;;;;;19.93;40.74;98138.72;5021671;28;19925;-78
2024/04/07 08:22:17;;;;;;;;;;;;;;;20.46;38.60;98136.03;5030706;28;19924;-78
2024/04/07 08:25:05;;;;;;;;;;;;;;;20.85;38.96;98144.91;5033077;28;19940;-78
2024/04/07 08:27:52;;;;;;;;;;;;;;;21.18;35.78;98141.38;5033363;28;20380;-78
2024/04/07 08:30:40;;;;;;;;;;;;;;;21.48;34.01;98152.44;5022476;28;19925;-79
2024/04/07 08:33:27;;;;;;;;;;;;;;;21.84;34.54;98147.28;5035912;28;20075;-77
2024/04/07 08:36:13;;;;;;;;;;;;;;;22.02;35.71;98159.31;5031411;28;20483;-81
2024/04/07 08:39:02;;;;;;;;;;;;;;;22.43;36.08;98154.56;5021332;28;19932;-93
2024/04/07 08:41:50;;;;;;;;;;;;;;;22.36;33.51;98148.97;5039125;28;19932;-93
2024/04/07 08:44:38;;;;;;;;;;;;;;;22.26;32.63;98152.44;5046437;28;19936;-89
2024/04/07 08:47:24;;;;;;;;;;;;;;;21.92;33.22;98149.75;5038770;28;19925;-90
2024/04/07 08:50:11;;;;;;;;;;;;;;;21.80;33.09;98152.00;5021465;28;19951;-76
2024/04/07 08:52:57;;;;;;;;;;;;;;;21.64;33.29;98143.94;5030834;28;19932;-76
2024/04/07 08:55:46;;;;;;;;;;;;;;;21.75;32.84;98144.84;5025220;28;19969;-84
2024/04/07 08:58:32;;;;;;;;;;;;;;;21.67;33.13;98138.41;5030267;28;19925;-87
2024/04/07 09:01:20;;;;;;;;;;;;;;;22.00;32.76;98134.03;5023058;28;19925;-80
2024/04/07 09:04:07;;;;;;;;;;;;;;;22.14;33.33;98145.22;5036768;28;20296;-82
2024/04/07 09:06:54;;;;;;;;;;;;;;;22.17;33.14;98149.22;5038448;28;19925;-82
2024/04/07 09:09:40;;;;;;;;;;;;;;;22.23;32.90;98142.16;5013002;28;19932;-80
2024/04/07 09:12:28;;;;;;;;;;;;;;;22.32;33.38;98139.84;5022386;28;20034;-80
2024/04/07 09:15:15;;;;;;;;;;;;;;;22.41;32.60;98154.13;5040835;28;19913;-85
2024/04/07 09:18:02;;;;;;;;;;;;;;;22.70;32.27;98149.63;5027496;28;19924;-84
2024/04/07 09:20:50;;;;;;;;;;;;;;;22.59;33.30;98150.72;5033086;28;20431;-83
2024/04/07 09:23:38;;;;;;;;;;;;;;;22.51;32.72;98151.84;5042508;28;19940;-78
2024/04/07 09:26:25;;;;;;;;;;;;;;;22.89;32.73;98156.06;5044531;28;20060;-76
2024/04/07 09:29:13;;;;;;;;;;;;;;;22.88;31.99;98154.50;5026757;28;19925;-80
2024/04/07 09:32:00;;;;;;;;;;;;;;;22.77;32.19;98148.84;5041562;28;19948;-84
2024/04/07 09:34:49;;;;;;;;;;;;;;;22.96;32.54;98154.16;5044157;28;20016;-87
2024/04/07 09:37:37;;;;;;;;;;;;;;;22.87;33.77;98158.41;5027520;28;20548;-86
2024/04/07 09:40:24;;;;;;;;;;;;;;;22.47;32.99;98152.59;5030671;28;19984;-86
2024/04/07 09:43:11;;;;;;;;;;;;;;;22.79;33.00;98151.22;5020102;28;19925;-84
2024/04/07 09:45:59;;;;;;;;;;;;;;;22.50;33.14;98151.06;5030477;28;19931;-83
2024/04/07 09:48:45;;;;;;;;;;;;;;;22.69;32.46;98147.22;5026486;28;19925;-80
2024/04/07 09:51:33;;;;;;;;;;;;;;;22.72;32.87;98146.44;5034428;28;20020;-79
2024/04/07 09:54:19;;;;;;;;;;;;;;;22.90;32.18;98147.38;5034628;28;20308;-77
2024/04/07 09:57:07;;;;;;;;;;;;;;;22.80;32.49;98156.41;5023853;28;19979;-75
2024/04/07 09:59:54;;;;;;;;;;;;;;;22.84;32.77;98159.19;5033011;28;20345;-75
2024/04/07 10:02:44;;;;;;;;;;;;;;;23.51;32.60;98159.53;5020920;28;19924;-86
2024/04/07 10:05:30;;;;;;;;;;;;;;;23.52;32.01;98152.81;5032684;28;19976;-83
2024/04/07 10:08:18;;;;;;;;;;;;;;;23.59;31.81;98148.44;5037531;28;19925;-87
2024/04/07 10:11:04;;;;;;;;;;;;;;;23.60;32.25;98147.28;5037575;28;20340;-88
2024/04/07 10:13:51;;;;;;;;;;;;;;;23.85;32.21;98148.16;5037019;28;19932;-87
2024/04/07 10:16:37;;;;;;;;;;;;;;;23.81;31.23;98150.16;5032265;28;19924;-86
2024/04/07 10:19:26;;;;;;;;;;;;;;;24.18;31.97;98149.81;5040168;28;19925;-81
2024/04/07 10:22:12;;;;;;;;;;;;;;;23.99;31.79;98148.19;5022167;28;20330;-84
2024/04/07 10:25:04;;;;;;;;;;;;;;;24.16;31.73;98146.59;5035965;28;19932;-85
2024/04/07 10:27:50;;;;;;;;;;;;;;;24.13;31.06;98160.47;5038183;28;19924;-84
2024/04/07 10:30:37;;;;;;;;;;;;;;;23.69;31.84;98167.94;5013181;28;19932;-84
2024/04/07 10:33:27;;;;;;;;;;;;;;;23.44;32.53;98153.97;5035074;28;20440;-84
2024/04/07 10:36:17;;;;;;;;;;;;;;;23.37;33.10;98159.47;5026275;28;19925;-86
2024/04/07 10:39:03;;;;;;;;;;;;;;;23.52;33.51;98161.13;5036995;28;19925;-86
2024/04/07 10:41:50;;;;;;;;;;;;;;;23.55;32.59;98158.78;5032677;28;19929;-89
2024/04/07 10:44:37;;;;;;;;;;;;;;;23.57;32.50;98157.19;5037540;28;19928;-90
2024/04/07 10:47:24;;;;;;;;;;;;;;;23.75;34.26;98162.78;5034285;28;19982;-91
2024/04/07 10:50:11;;;;;;;;;;;;;;;23.63;33.12;98165.94;5021404;28;20016;-91
2024/04/07 10:53:06;;;;;;;;;;;;;;;23.30;32.92;98173.31;5023430;28;19970;-85
2024/04/07 10:55:52;;;;;;;;;;;;;;;23.50;33.33;98182.13;5026972;28;19925;-86
2024/04/07 10:58:39;;;;;;;;;;;;;;;23.30;33.77;98186.38;5037177;28;19925;-77
2024/04/07 11:01:26;;;;;;;;;;;;;;;22.72;34.96;98193.53;5038641;28;20331;-77
2024/04/07 11:04:13;;;;;;;;;;;;;;;23.15;34.40;98196.59;5037943;28;19928;-79
2024/04/07 11:07:00;;;;;;;;;;;;;;;22.98;34.89;98187.00;5033619;28;19925;-83
2024/04/07 11:09:48;;;;;;;;;;;;;;;22.74;35.36;98197.53;5031708;28;19929;-83
2024/04/07 11:12:35;;;;;;;;;;;;;;;22.85;35.54;98189.28;5039147;28;19979;-87
2024/04/07 11:15:23;;;;;;;;;;;;;;;23.21;34.86;98184.75;5033133;28;20393;-86
2024/04/07 11:18:13;;;;;;;;;;;;;;;23.21;36.29;98189.50;5039686;28;20005;-86
2024/04/07 11:21:00;;;;;;;;;;;;;;;23.35;35.53;98197.91;5034425;28;19925;-86
2024/04/07 11:23:49;;;;;;;;;;;;;;;23.82;35.51;98189.78;5037189;28;20559;-86
2024/04/07 11:26:36;;;;;;;;;;;;;;;24.02;34.44;98175.16;5039702;28;19925;-87
2024/04/07 11:29:25;;;;;;;;;;;;;;;23.77;34.75;98163.22;5029227;28;19929;-86
2024/04/07 11:32:12;;;;;;;;;;;;;;;24.20;35.22;98166.06;5025926;28;19939;-86
2024/04/07 11:35:03;;;;;;;;;;;;;;;23.97;34.70;98180.28;5024375;28;19928;-85
2024/04/07 11:37:49;;;;;;;;;;;;;;;23.94;34.72;98176.31;5039839;28;19925;-86
2024/04/07 11:40:37;;;;;;;;;;;;;;;23.70;35.12;98171.50;5033021;28;19931;-86
2024/04/07 11:43:25;;;;;;;;;;;;;;;23.67;35.21;98163.97;5039013;28;20402;-86
2024/04/07 11:46:12;;;;;;;;;;;;;;;23.48;35.77;98165.84;5020452;28;19925;-85
2024/04/07 11:48:58;;;;;;;;;;;;;;;24.04;33.92;98164.44;5036343;28;20292;-84
2024/04/07 11:51:46;;;;;;;;;;;;;;;23.96;34.41;98150.94;5041276;28;20284;-86
2024/04/07 11:54:33;;;;;;;;;;;;;;;23.94;34.32;98145.78;5037889;28;19971;-85
2024/04/07 11:57:20;;;;;;;;;;;;;;;24.03;34.66;98148.19;5037704;28;19984;-86
2024/04/07 12:00:08;;;;;;;;;;;;;;;23.23;35.73;98153.91;5034932;28;19925;-88
2024/04/07 12:02:58;;;;;;;;;;;;;;;23.53;35.45;98162.69;5027138;28;19977;-85
2024/04/07 12:05:45;;;;;;;;;;;;;;;23.90;34.77;98166.41;5019576;28;19933;-84
2024/04/07 12:08:32;;;;;;;;;;;;;;;23.93;34.39;98163.63;5023517;28;20288;-84
2024/04/07 12:11:18;;;;;;;;;;;;;;;23.91;34.96;98157.66;5021045;28;20415;-86
2024/04/07 12:14:05;;;;;;;;;;;;;;;23.93;34.95;98151.75;5042445;28;19931;-88
2024/04/07 12:16:53;;;;;;;;;;;;;;;23.15;36.09;98153.03;5040369;28;19932;-90
2024/04/07 12:19:40;;;;;;;;;;;;;;;23.47;35.50;98158.72;5020942;28;19925;-78
2024/04/07 12:22:34;;;;;;;;;;;;;;;23.31;35.82;98152.72;5034353;28;19937;-82
2024/04/07 12:25:22;;;;;;;;;;;;;;;23.63;35.36;98146.53;5029396;28;19932;-80
2024/04/07 12:28:08;;;;;;;;;;;;;;;23.83;34.81;98146.97;5031657;28;20422;-80
2024/04/07 12:30:58;;;;;;;;;;;;;;;24.14;34.20;98134.31;5032827;28;19933;-82
2024/04/07 12:33:48;;;;;;;;;;;;;;;24.15;34.50;98130.34;5033509;28;19929;-82
2024/04/07 12:36:36;;;;;;;;;;;;;;;24.30;35.19;98126.41;5032841;28;19970;-79
2024/04/07 12:39:22;;;;;;;;;;;;;;;24.23;34.96;98129.16;5037130;28;19933;-80
2024/04/07 12:42:09;;;;;;;;;;;;;;;24.50;34.58;98121.22;5029155;28;19928;-80
2024/04/07 12:44:56;;;;;;;;;;;;;;;24.50;34.57;98119.28;5028345;28;19924;-81
2024/04/07 12:47:43;;;;;;;;;;;;;;;23.94;35.08;98125.59;5025132;28;19972;-82
2024/04/07 12:50:32;;;;;;;;;;;;;;;23.76;35.82;98125.56;5016378;28;19988;-81
2024/04/07 12:53:19;;;;;;;;;;;;;;;23.70;35.63;98124.34;5035235;28;19934;-80
2024/04/07 12:56:06;;;;;;;;;;;;;;;23.68;35.70;98118.41;5026171;28;19925;-78
2024/04/07 12:58:55;;;;;;;;;;;;;;;23.94;35.44;98120.03;5020075;28;19931;-81
2024/04/07 13:01:41;;;;;;;;;;;;;;;23.86;35.65;98118.41;5017660;28;19925;-76
2024/04/07 13:04:28;;;;;;;;;;;;;;;23.79;36.12;98113.66;5034397;28;19925;-82
2024/04/07 13:07:18;;;;;;;;;;;;;;;23.83;35.64;98110.91;5037599;28;19925;-77
2024/04/07 13:10:05;;;;;;;;;;;;;;;23.67;36.05;98123.16;5023045;28;19932;-78
2024/04/07 13:12:53;;;;;;;;;;;;;;;23.81;35.81;98119.63;5040426;28;19925;-87
2024/04/07 13:15:39;;;;;;;;;;;;;;;23.71;35.51;98120.41;5041914;28;19939;-88
2024/04/07 13:18:27;;;;;;;;;;;;;;;23.91;35.62;98110.50;5044422;28;19936;-87
2024/04/07 13:21:13;;;;;;;;;;;;;;;24.17;34.84;98111.31;5057586;28;19924;-87
2024/04/07 13:24:05;;;;;;;;;;;;;;;24.20;35.48;98099.44;5049829;28;20024;-87
2024/04/07 13:26:52;;;;;;;;;;;;;;;23.67;36.00;98092.66;5031413;28;19939;-78
2024/04/07 13:29:40;;;;;;;;;;;;;;;23.87;36.75;98093.09;5025653;28;19929;-79
2024/04/07 13:32:26;;;;;;;;;;;;;;;23.71;36.51;98095.44;5033345;28;19925;-79
2024/04/07 13:35:13;;;;;;;;;;;;;;;23.67;36.59;98086.31;5038013;28;20366;-80
2024/04/07 13:37:59;;;;;;;;;;;;;;;23.49;36.74;98095.38;5044730;28;19936;-78
2024/04/07 13:40:54;;;;;;;;;;;;;;;23.64;36.87;98100.94;5017751;28;19928;-78
2024/04/07 13:43:41;;;;;;;;;;;;;;;23.42;36.59;98100.88;5040736;28;19929;-87
2024/04/07 13:46:28;;;;;;;;;;;;;;;23.53;36.38;98096.16;5045975;28;20302;-87
2024/04/07 13:49:14;;;;;;;;;;;;;;;23.68;36.97;98091.47;5049580;28;19925;-87
2024/04/07 13:52:01;;;;;;;;;;;;;;;23.61;36.82;98087.84;5044873;28;19920;-87
2024/04/07 13:54:48;;;;;;;;;;;;;;;23.57;36.77;98087.84;5039867;28;19925;-87
2024/04/07 13:57:36;;;;;;;;;;;;;;;23.53;37.45;98090.59;5048839;28;19932;-87
2024/04/07 14:00:23;;;;;;;;;;;;;;;23.55;36.79;98092.22;5044756;28;19931;-88
2024/04/07 14:03:10;;;;;;;;;;;;;;;23.78;36.94;98081.56;5034205;28;20392;-87
2024/04/07 14:05:57;;;;;;;;;;;;;;;23.47;37.32;98074.75;5035185;28;20301;-88
2024/04/07 14:08:44;;;;;;;;;;;;;;;23.23;37.26;98079.06;5040535;28;19931;-88
2024/04/07 14:11:30;;;;;;;;;;;;;;;23.22;37.65;98081.03;5032397;28;19972;-88
2024/04/07 14:14:18;;;;;;;;;;;;;;;23.35;37.14;98070.38;5043299;28;19924;-87
2024/04/07 14:17:05;;;;;;;;;;;;;;;23.42;37.36;98061.25;5051270;28;19929;-77
2024/04/07 14:19:52;;;;;;;;;;;;;;;23.42;37.63;98056.50;5037911;28;19932;-78
2024/04/07 14:22:38;;;;;;;;;;;;;;;23.60;36.94;98053.00;5038685;28;20015;-76
2024/04/07 14:25:25;;;;;;;;;;;;;;;23.72;37.33;98050.66;5014151;28;19924;-77
2024/04/07 14:28:11;;;;;;;;;;;;;;;23.58;37.24;98047.03;5022977;28;20376;-76
2024/04/07 14:31:00;;;;;;;;;;;;;;;23.51;37.42;98037.53;5037420;28;19924;-77
2024/04/07 14:33:46;;;;;;;;;;;;;;;23.58;37.12;98031.19;5041762;28;19932;-87
2024/04/07 14:36:34;;;;;;;;;;;;;;;23.49;37.56;98028.81;5036319;28;19925;-87